Time;durP1;ratioP1;P1;durP2;ratioP2;P2;SDS_P1;SDS_P2;PMS_P1;PMS_P2;Temp;Humidity;BMP_temperature;BMP_pressure;BME280_temperature;BME280_humidity;BME280_pressure;Samples;Min_cycle;Max_cycle;Signal;HPM_P1;HPM_P2
2023/01/19 00:00:02;;;;;;;5.68;2.85;;;2.30;99.90;;;;;;5049751;28;20033;-82
2023/01/19 00:02:28;;;;;;;6.97;2.78;;;2.30;99.90;;;;;;5049739;28;20044;-81
2023/01/19 00:04:53;;;;;;;4.03;2.50;;;2.30;99.90;;;;;;5049733;28;20037;-81
2023/01/19 00:07:19;;;;;;;5.85;2.45;;;2.30;99.90;;;;;;5049731;28;20045;-81
2023/01/19 00:09:44;;;;;;;6.88;3.03;;;2.30;99.90;;;;;;5032850;28;20454;-81
2023/01/19 00:12:10;;;;;;;5.65;2.88;;;2.30;99.90;;;;;;5043121;28;20071;-81
2023/01/19 00:14:36;;;;;;;7.00;3.17;;;2.30;99.90;;;;;;5045649;28;20036;-81
2023/01/19 00:17:01;;;;;;;7.80;2.75;;;2.30;99.90;;;;;;5048450;28;20037;-83
2023/01/19 00:19:27;;;;;;;4.68;2.67;;;2.30;99.90;;;;;;5042405;28;20112;-82
2023/01/19 00:21:53;;;;;;;6.07;2.80;;;2.30;99.90;;;;;;5044875;28;20064;-82
2023/01/19 00:24:19;;;;;;;4.10;2.47;;;2.30;99.90;;;;;;5052099;28;20104;-82
2023/01/19 00:26:45;;;;;;;5.32;2.88;;;2.40;99.90;;;;;;5053762;28;20135;-82
2023/01/19 00:29:11;;;;;;;8.85;3.40;;;2.40;99.90;;;;;;5053394;28;20072;-82
2023/01/19 00:31:37;;;;;;;6.80;3.30;;;2.40;99.90;;;;;;5053506;28;20040;-82
2023/01/19 00:34:04;;;;;;;3.95;2.78;;;2.40;99.90;;;;;;5053470;28;20423;-82
2023/01/19 00:36:30;;;;;;;6.25;2.90;;;2.40;99.90;;;;;;5053208;28;20116;-81
2023/01/19 00:38:55;;;;;;;10.68;4.50;;;2.40;99.90;;;;;;5053421;28;20568;-82
2023/01/19 00:42:38;;;;;;;6.95;3.10;;;2.40;99.90;;;;;;5036749;28;20037;-81
2023/01/19 00:44:06;;;;;;;5.75;2.92;;;2.40;99.90;;;;;;5053152;28;20454;-82
2023/01/19 00:46:32;;;;;;;7.20;3.20;;;2.40;99.90;;;;;;5036505;28;20036;-82
2023/01/19 00:48:58;;;;;;;8.15;3.28;;;2.40;99.90;;;;;;5052947;28;20041;-82
2023/01/19 00:51:24;;;;;;;5.88;2.88;;;2.40;99.90;;;;;;5036545;28;20048;-82
2023/01/19 00:53:50;;;;;;;6.95;2.90;;;2.40;99.90;;;;;;5053094;28;20048;-82
2023/01/19 00:56:16;;;;;;;7.40;2.90;;;2.40;99.90;;;;;;5052932;28;20095;-82
2023/01/19 00:58:42;;;;;;;5.97;2.42;;;2.40;99.90;;;;;;5036234;28;20048;-82
2023/01/19 01:01:07;;;;;;;5.10;2.40;;;2.40;99.90;;;;;;5053277;28;20494;-81
2023/01/19 01:03:33;;;;;;;5.32;2.08;;;2.40;99.90;;;;;;5036411;28;20037;-82
2023/01/19 01:05:58;;;;;;;5.35;2.20;;;2.40;99.90;;;;;;5052929;28;20090;-82
2023/01/19 01:08:24;;;;;;;4.78;1.90;;;2.40;99.90;;;;;;5052536;28;20116;-82
2023/01/19 01:10:51;;;;;;;3.50;1.52;;;2.40;99.90;;;;;;5052721;28;20417;-82
2023/01/19 01:13:16;;;;;;;4.55;1.50;;;2.50;99.90;;;;;;5052750;28;20044;-82
2023/01/19 01:15:42;;;;;;;3.92;1.30;;;2.50;99.90;;;;;;5052572;28;20041;-81
2023/01/19 01:18:08;;;;;;;3.17;1.00;;;2.50;99.90;;;;;;5052383;28;20108;-81
2023/01/19 01:20:35;;;;;;;3.45;1.67;;;2.50;99.90;;;;;;5052500;28;20039;-82
2023/01/19 01:23:01;;;;;;;3.05;0.90;;;2.60;99.90;;;;;;5052379;28;20090;-82
2023/01/19 01:25:29;;;;;;;5.72;1.30;;;2.60;99.90;;;;;;5052502;28;20041;-82
2023/01/19 01:27:55;;;;;;;3.33;1.00;;;2.70;99.90;;;;;;5052447;28;20033;-82
2023/01/19 01:30:22;;;;;;;5.25;1.10;;;2.60;99.90;;;;;;5052882;28;20048;-82
2023/01/19 01:32:48;;;;;;;4.28;1.00;;;2.60;99.90;;;;;;5052452;28;20033;-82
2023/01/19 01:35:14;;;;;;;6.20;1.20;;;2.70;99.90;;;;;;5051693;28;20051;-82
2023/01/19 01:37:41;;;;;;;3.45;1.20;;;2.60;99.90;;;;;;5051860;28;20036;-82
2023/01/19 01:40:09;;;;;;;4.03;1.02;;;2.70;99.90;;;;;;5052291;28;20094;-82
2023/01/19 01:42:34;;;;;;;4.28;1.60;;;2.70;99.90;;;;;;5052208;28;20079;-82
2023/01/19 01:45:04;;;;;;;3.95;1.33;;;2.70;99.90;;;;;;5052321;28;20064;-82
2023/01/19 01:47:44;;;;;;;4.15;1.30;;;2.70;99.90;;;;;;5052144;28;20052;-82
2023/01/19 01:50:13;;;;;;;4.82;2.65;;;2.70;99.90;;;;;;5052494;28;20494;-82
2023/01/19 01:52:51;;;;;;;7.25;3.13;;;2.70;99.90;;;;;;5052063;28;20518;-81
2023/01/19 01:55:19;;;;;;;5.82;3.38;;;2.70;99.90;;;;;;5050953;28;20044;-82
2023/01/19 01:57:56;;;;;;;4.63;3.38;;;2.60;99.90;;;;;;5034942;28;20083;-82
2023/01/19 02:00:22;;;;;;;5.93;3.55;;;2.60;99.90;;;;;;5035298;28;20566;-82
2023/01/19 02:02:53;;;;;;;5.03;3.60;;;2.50;99.90;;;;;;5052125;28;20560;-82
2023/01/19 02:05:33;;;;;;;10.15;4.30;;;2.50;99.90;;;;;;5051832;28;20041;-82
2023/01/19 02:13:38;;;;;;;6.22;3.80;;;2.40;99.90;;;;;;5051596;28;20067;-81
2023/01/19 02:16:08;;;;;;;5.35;3.50;;;2.40;99.90;;;;;;5051641;28;20036;-82
2023/01/19 02:18:34;;;;;;;9.02;3.85;;;2.30;99.90;;;;;;5051448;28;20037;-83
2023/01/19 02:21:13;;;;;;;6.60;4.18;;;2.30;99.90;;;;;;5051605;28;20140;-82
2023/01/19 02:23:48;;;;;;;7.63;4.45;;;2.30;99.90;;;;;;5051471;28;20036;-82
2023/01/19 02:26:19;;;;;;;7.25;4.15;;;2.30;99.90;;;;;;5051854;28;20125;-81
2023/01/19 02:29:04;;;;;;;7.03;4.72;;;2.30;99.90;;;;;;5034626;28;20116;-82
2023/01/19 02:31:30;;;;;;;8.85;4.03;;;2.30;99.90;;;;;;5051417;28;20044;-82
2023/01/19 02:33:58;;;;;;;6.93;3.85;;;2.30;99.90;;;;;;5051316;28;20503;-82
2023/01/19 02:36:32;;;;;;;6.90;3.70;;;2.30;99.90;;;;;;5051467;28;20041;-82
2023/01/19 02:38:59;;;;;;;6.53;3.42;;;2.30;99.90;;;;;;5051174;28;20040;-82
2023/01/19 02:41:31;;;;;;;5.28;2.97;;;2.30;99.90;;;;;;5051083;28;20041;-83
2023/01/19 02:43:57;;;;;;;5.68;3.38;;;2.30;99.90;;;;;;5034379;28;20032;-82
2023/01/19 02:46:24;;;;;;;5.07;3.20;;;2.20;99.90;;;;;;5050238;28;20032;-82
2023/01/19 02:48:50;;;;;;;6.07;3.10;;;2.30;99.90;;;;;;5050991;28;20041;-81
2023/01/19 02:51:25;;;;;;;6.28;3.72;;;2.30;99.90;;;;;;5051402;28;20043;-82
2023/01/19 02:54:15;;;;;;;6.15;3.45;;;2.20;99.90;;;;;;5034360;28;20079;-82
2023/01/19 02:57:17;;;;;;;6.55;3.42;;;2.20;99.90;;;;;;5034112;28;20045;-82
2023/01/19 02:59:54;;;;;;;10.07;3.25;;;2.20;99.90;;;;;;5050683;28;20040;-82
2023/01/19 03:02:45;;;;;;;6.18;3.33;;;2.20;99.90;;;;;;5050686;28;20483;-82
2023/01/19 03:05:29;;;;;;;6.03;3.58;;;2.20;99.90;;;;;;5034091;28;20037;-82
2023/01/19 03:07:58;;;;;;;6.53;3.95;;;2.20;99.90;;;;;;5034196;28;20115;-82
2023/01/19 03:10:50;;;;;;;6.35;4.07;;;2.20;99.90;;;;;;5050403;28;20037;-82
2023/01/19 03:13:23;;;;;;;6.53;3.83;;;2.20;99.90;;;;;;5033772;28;20155;-82
2023/01/19 03:15:54;;;;;;;6.53;3.92;;;2.20;99.90;;;;;;5050597;28;20048;-82
2023/01/19 03:18:24;;;;;;;7.32;4.18;;;2.20;99.90;;;;;;5050357;28;20471;-82
2023/01/19 03:20:54;;;;;;;7.25;3.92;;;2.20;99.90;;;;;;5050652;28;20044;-82
2023/01/19 03:23:23;;;;;;;6.82;3.83;;;2.20;99.90;;;;;;5050619;28;20410;-82
2023/01/19 03:25:51;;;;;;;9.27;3.95;;;2.30;99.90;;;;;;5050362;28;20121;-82
2023/01/19 03:28:21;;;;;;;7.00;4.07;;;2.30;99.90;;;;;;5033639;28;20045;-82
2023/01/19 03:30:55;;;;;;;6.13;3.72;;;2.30;99.90;;;;;;5050455;28;20045;-82
2023/01/19 03:33:27;;;;;;;;;;;2.30;99.90;;;;;;5034077;28;20037;-82
2023/01/19 03:36:04;;;;;;;8.40;3.95;;;2.30;99.90;;;;;;5050272;28;20007;-82
2023/01/19 03:38:34;;;;;;;7.10;3.60;;;2.30;99.90;;;;;;5049248;28;20150;-82
2023/01/19 03:41:03;;;;;;;6.93;3.88;;;2.30;99.90;;;;;;5049159;28;20068;-82
2023/01/19 03:43:30;;;;;;;6.10;3.60;;;2.30;99.90;;;;;;5050202;28;20098;-82
2023/01/19 03:45:56;;;;;;;7.75;4.20;;;2.20;99.90;;;;;;5050136;28;20045;-82
2023/01/19 03:48:23;;;;;;;5.70;3.60;;;2.30;99.90;;;;;;5049840;28;20037;-82
2023/01/19 03:50:50;;;;;;;5.07;3.17;;;2.20;99.90;;;;;;5050121;28;20037;-82
2023/01/19 03:53:16;;;;;;;8.57;3.95;;;2.20;99.90;;;;;;5050318;28;20071;-82
2023/01/19 03:55:46;;;;;;;7.15;3.42;;;2.20;99.90;;;;;;5050023;28;20102;-82
2023/01/19 03:58:12;;;;;;;7.20;3.53;;;2.20;99.90;;;;;;5049871;28;20045;-82
2023/01/19 04:00:37;;;;;;;8.95;4.10;;;2.30;99.90;;;;;;5050142;28;20518;-82
2023/01/19 04:03:05;;;;;;;7.30;4.30;;;2.30;99.90;;;;;;5049862;28;20041;-82
2023/01/19 04:05:31;;;;;;;6.38;3.28;;;2.30;99.90;;;;;;5033136;28;20522;-82
2023/01/19 04:07:56;;;;;;;7.75;3.65;;;2.30;99.90;;;;;;5033186;28;20072;-82
2023/01/19 04:10:22;;;;;;;5.45;3.38;;;2.30;99.90;;;;;;5049896;28;20465;-82
2023/01/19 04:12:48;;;;;;;6.65;3.13;;;2.30;99.90;;;;;;5049717;28;20415;-81
2023/01/19 04:15:14;;;;;;;8.27;3.42;;;2.30;99.90;;;;;;5049760;28;20124;-82
2023/01/19 04:17:40;;;;;;;5.60;3.25;;;2.30;99.90;;;;;;5049224;28;20490;-81
2023/01/19 04:20:07;;;;;;;7.45;3.53;;;2.30;99.90;;;;;;5033218;28;20083;-81
2023/01/19 04:22:33;;;;;;;8.25;3.65;;;2.30;99.90;;;;;;5032945;28;20044;-82
2023/01/19 04:24:58;;;;;;;7.05;2.97;;;2.30;99.90;;;;;;5049756;28;20049;-81
2023/01/19 04:27:24;;;;;;;5.90;2.97;;;2.40;99.90;;;;;;5049845;28;20044;-81
2023/01/19 04:29:50;;;;;;;6.45;2.97;;;2.30;99.90;;;;;;5049566;28;20037;-82
2023/01/19 04:32:16;;;;;;;8.07;3.53;;;2.40;99.90;;;;;;5049780;28;20067;-82
2023/01/19 04:34:42;;;;;;;6.05;3.22;;;2.30;99.90;;;;;;5049965;28;20041;-82
2023/01/19 04:37:08;;;;;;;6.45;3.13;;;2.30;99.90;;;;;;5049546;28;20116;-82
2023/01/19 04:39:34;;;;;;;5.35;2.80;;;2.30;99.90;;;;;;5049435;28;20069;-82
2023/01/19 04:42:00;;;;;;;6.43;3.05;;;2.30;99.90;;;;;;5032387;28;20064;-82
2023/01/19 04:44:26;;;;;;;6.53;2.90;;;2.30;99.90;;;;;;5032761;28;20080;-82
2023/01/19 04:46:52;;;;;;;4.78;2.70;;;2.30;99.90;;;;;;5049536;28;20037;-82
2023/01/19 04:49:18;;;;;;;5.25;2.20;;;2.30;99.90;;;;;;5049451;28;20513;-82
2023/01/19 04:51:43;;;;;;;6.07;2.25;;;2.30;99.90;;;;;;5049374;28;20045;-82
2023/01/19 04:54:09;;;;;;;5.45;2.20;;;2.30;99.90;;;;;;5049682;28;20102;-81
2023/01/19 04:56:35;;;;;;;6.55;1.80;;;2.30;99.90;;;;;;5033021;28;20045;-82
2023/01/19 04:59:01;;;;;;;3.25;1.70;;;2.30;99.90;;;;;;5049477;28;20697;-82
2023/01/19 05:01:26;;;;;;;3.13;1.45;;;2.30;99.90;;;;;;5049606;28;20040;-82
2023/01/19 05:03:52;;;;;;;3.55;1.40;;;2.30;99.90;;;;;;5049419;28;20041;-82
2023/01/19 05:06:18;;;;;;;4.20;1.42;;;2.30;99.90;;;;;;5048570;28;20039;-82
2023/01/19 05:08:43;;;;;;;6.25;1.30;;;2.40;99.90;;;;;;5031696;28;20069;-82
2023/01/19 05:11:09;;;;;;;5.38;1.20;;;2.40;99.90;;;;;;5052570;28;20453;-82
2023/01/19 05:13:34;;;;;;;5.35;1.30;;;2.40;99.90;;;;;;5052318;28;20477;-82
2023/01/19 05:16:00;;;;;;;4.57;1.00;;;2.40;99.90;;;;;;5036148;28;20033;-82
2023/01/19 05:18:26;;;;;;;2.97;0.80;;;2.40;99.90;;;;;;5052407;28;20045;-82
2023/01/19 05:20:51;;;;;;;3.92;0.82;;;2.40;99.90;;;;;;5052678;28;20450;-82
2023/01/19 05:23:17;;;;;;;2.47;0.93;;;2.30;99.90;;;;;;5036149;28;20491;-82
2023/01/19 05:25:43;;;;;;;3.55;0.88;;;2.40;99.90;;;;;;5052689;28;20037;-83
2023/01/19 05:28:09;;;;;;;1.30;0.57;;;2.30;99.90;;;;;;5035724;28;20036;-82
2023/01/19 05:30:35;;;;;;;2.05;0.60;;;2.30;99.90;;;;;;5052562;28;20087;-82
2023/01/19 05:33:01;;;;;;;2.28;0.60;;;2.30;99.90;;;;;;5052355;28;20048;-82
2023/01/19 05:35:27;;;;;;;1.75;0.60;;;2.30;99.90;;;;;;5052419;28;20056;-82
2023/01/19 05:37:53;;;;;;;4.65;0.60;;;2.40;99.90;;;;;;5052378;28;20517;-82
2023/01/19 05:40:18;;;;;;;3.67;0.55;;;2.40;99.90;;;;;;5052669;28;20036;-82
2023/01/19 05:42:44;;;;;;;2.92;0.50;;;2.40;99.90;;;;;;5052360;28;20514;-82
2023/01/19 05:45:10;;;;;;;6.90;0.47;;;2.40;99.90;;;;;;5052243;28;20040;-82
2023/01/19 05:47:36;;;;;;;3.78;0.50;;;2.40;99.90;;;;;;5052323;28;20396;-82
2023/01/19 05:50:02;;;;;;;3.30;0.68;;;2.40;99.90;;;;;;5052167;28;20040;-82
2023/01/19 05:52:27;;;;;;;3.85;0.70;;;2.50;99.90;;;;;;5052172;28;20044;-82
2023/01/19 05:54:54;;;;;;;3.88;0.70;;;2.60;99.90;;;;;;5052448;28;20032;-82
2023/01/19 05:57:20;;;;;;;6.13;0.80;;;2.70;99.90;;;;;;5052003;28;20411;-82
2023/01/19 05:59:45;;;;;;;5.35;0.90;;;2.70;99.90;;;;;;5052434;28;20441;-81
2023/01/19 06:02:11;;;;;;;4.82;0.80;;;2.80;99.90;;;;;;5051833;28;20083;-82
2023/01/19 06:04:36;;;;;;;3.90;0.80;;;2.70;99.90;;;;;;5035314;28;20045;-82
2023/01/19 06:07:03;;;;;;;6.43;0.82;;;2.70;99.90;;;;;;5052009;28;20076;-82
2023/01/19 06:09:29;;;;;;;4.60;0.65;;;2.60;99.90;;;;;;5051628;28;20048;-82
2023/01/19 06:11:56;;;;;;;4.70;1.33;;;2.60;99.90;;;;;;5051739;28;20047;-82
2023/01/19 06:14:22;;;;;;;5.40;0.77;;;2.60;99.90;;;;;;5051697;28;20056;-81
2023/01/19 06:16:47;;;;;;;3.88;0.90;;;2.50;99.90;;;;;;5051621;28;20391;-82
2023/01/19 06:19:13;;;;;;;4.20;0.82;;;2.50;99.90;;;;;;5051695;28;20040;-82
2023/01/19 06:21:39;;;;;;;4.03;0.70;;;2.40;99.90;;;;;;5051727;28;20577;-82
2023/01/19 06:24:05;;;;;;;2.90;0.70;;;2.40;99.90;;;;;;5051753;28;20099;-82
2023/01/19 06:26:30;;;;;;;2.03;0.65;;;2.40;99.90;;;;;;5034979;28;20284;-82
2023/01/19 06:28:56;;;;;;;1.75;0.50;;;2.40;99.90;;;;;;5051309;28;20512;-82
2023/01/19 06:31:22;;;;;;;1.58;0.50;;;2.30;99.90;;;;;;5034731;28;20626;-83
2023/01/19 06:33:47;;;;;;;8.23;1.27;;;2.50;99.90;;;;;;5046602;28;20040;-83
2023/01/19 06:36:13;;;;;;;6.07;1.00;;;2.70;99.90;;;;;;5038004;28;20029;-83
2023/01/19 06:38:39;;;;;;;5.05;1.17;;;2.80;99.90;;;;;;5028951;28;20063;-82
2023/01/19 06:41:04;;;;;;;3.97;0.90;;;2.80;99.90;;;;;;5029279;28;20037;-83
2023/01/19 06:43:30;;;;;;;6.35;1.02;;;2.80;99.90;;;;;;5030827;28;20333;-83
2023/01/19 06:45:56;;;;;;;8.40;1.30;;;2.70;99.90;;;;;;5041198;28;20049;-83
2023/01/19 06:48:22;;;;;;;6.75;1.00;;;2.60;99.90;;;;;;5050938;28;20037;-83
2023/01/19 06:50:48;;;;;;;9.63;1.08;;;2.70;99.90;;;;;;5051275;28;20045;-82
2023/01/19 06:53:15;;;;;;;5.53;1.10;;;2.60;99.90;;;;;;5050840;28;20538;-83
2023/01/19 06:55:44;;;;;;;7.07;1.15;;;2.60;99.90;;;;;;5033051;28;20098;-82
2023/01/19 06:58:10;;;;;;;7.97;1.05;;;2.60;99.90;;;;;;5048421;28;20045;-83
2023/01/19 07:00:36;;;;;;;4.60;1.00;;;2.60;99.90;;;;;;5048423;28;20128;-83
2023/01/19 07:03:05;;;;;;;8.05;1.45;;;2.60;99.90;;;;;;5049274;28;20086;-83
2023/01/19 07:05:30;;;;;;;8.20;1.13;;;2.70;99.90;;;;;;5049619;28;20457;-83
2023/01/19 07:07:56;;;;;;;5.05;1.65;;;2.90;99.90;;;;;;5049109;28;20094;-84
2023/01/19 07:10:23;;;;;;;7.53;1.25;;;3.00;99.90;;;;;;5033067;28;20045;-83
2023/01/19 07:12:49;;;;;;;10.23;1.13;;;3.00;99.90;;;;;;5050374;28;20097;-83
2023/01/19 07:15:18;;;;;;;8.30;1.23;;;3.10;99.90;;;;;;5050723;28;20102;-83
2023/01/19 07:17:44;;;;;;;6.00;1.27;;;3.10;99.90;;;;;;5050374;28;20045;-84
2023/01/19 07:20:13;;;;;;;8.15;1.40;;;3.10;99.90;;;;;;5033823;28;20037;-83
2023/01/19 07:22:42;;;;;;;8.73;1.20;;;3.10;99.90;;;;;;5035828;28;20495;-83
2023/01/19 07:25:08;;;;;;;10.98;1.42;;;3.10;99.90;;;;;;5030263;28;20052;-82
2023/01/19 07:27:34;;;;;;;8.18;1.02;;;3.00;99.90;;;;;;5013126;28;20033;-83
2023/01/19 07:30:00;;;;;;;7.80;1.30;;;3.00;99.90;;;;;;5029210;28;20048;-81
2023/01/19 07:32:26;;;;;;;6.43;1.00;;;2.90;99.90;;;;;;5033513;28;20040;-83
2023/01/19 07:34:52;;;;;;;7.75;1.30;;;2.90;99.90;;;;;;5049941;28;20043;-83
2023/01/19 07:37:18;;;;;;;15.10;1.48;;;2.90;99.90;;;;;;5050241;28;20046;-83
2023/01/19 07:39:43;;;;;;;9.13;2.08;;;2.90;99.90;;;;;;5042528;28;20029;-83
2023/01/19 07:42:09;;;;;;;11.43;1.30;;;3.00;99.90;;;;;;5035037;28;20087;-83
2023/01/19 07:44:34;;;;;;;7.95;1.35;;;3.20;99.90;;;;;;5026446;28;20037;-82
2023/01/19 07:47:00;;;;;;;9.85;1.40;;;3.20;99.90;;;;;;5031621;28;20045;-83
2023/01/19 07:49:25;;;;;;;7.10;1.20;;;3.40;99.90;;;;;;5029129;28;20077;-83
2023/01/19 07:51:51;;;;;;;11.23;1.48;;;3.50;99.90;;;;;;5029520;28;20077;-83
2023/01/19 07:54:16;;;;;;;14.07;1.85;;;3.50;99.90;;;;;;5030412;28;20080;-84
2023/01/19 07:56:42;;;;;;;13.65;2.05;;;3.60;99.90;;;;;;5029974;28;20048;-83
2023/01/19 07:59:09;;;;;;;8.73;1.45;;;3.60;99.90;;;;;;5029812;28;20049;-84
2023/01/19 08:01:34;;;;;;;9.35;1.13;;;3.60;99.90;;;;;;5029396;28;20045;-83
2023/01/19 08:04:00;;;;;;;5.75;0.93;;;3.60;99.90;;;;;;5012897;28;20033;-83
2023/01/19 08:06:32;;;;;;;9.05;1.30;;;3.50;99.90;;;;;;5029875;28;20072;-83
2023/01/19 08:08:57;;;;;;;7.15;1.00;;;3.50;99.90;;;;;;5028924;28;20044;-83
2023/01/19 08:11:23;;;;;;;6.40;1.33;;;3.50;99.90;;;;;;5023834;28;20415;-83
2023/01/19 08:13:48;;;;;;;8.77;1.30;;;3.50;99.90;;;;;;5047078;28;20044;-82
2023/01/19 08:16:14;;;;;;;9.65;1.00;;;3.50;99.90;;;;;;5030213;28;20048;-83
2023/01/19 08:18:39;;;;;;;7.18;1.35;;;3.50;99.90;;;;;;5046855;28;20044;-83
2023/01/19 08:21:05;;;;;;;5.50;1.00;;;3.50;99.90;;;;;;5047824;28;20191;-83
2023/01/19 08:23:30;;;;;;;7.00;1.00;;;3.50;99.90;;;;;;5048322;28;20104;-82
2023/01/19 08:25:56;;;;;;;6.88;1.45;;;3.50;99.90;;;;;;5049373;28;20087;-82
2023/01/19 08:28:22;;;;;;;8.55;1.88;;;3.40;99.90;;;;;;5049550;28;20044;-82
2023/01/19 08:30:53;;;;;;;8.50;1.42;;;3.40;99.90;;;;;;5049627;28;20041;-83
2023/01/19 08:33:19;;;;;;;9.38;2.00;;;3.40;99.90;;;;;;5049565;28;20563;-83
2023/01/19 08:35:49;;;;;;;10.38;1.48;;;3.40;99.90;;;;;;5033068;28;20044;-83
2023/01/19 08:38:15;;;;;;;10.27;1.40;;;3.40;99.90;;;;;;5049254;28;20041;-83
2023/01/19 08:40:42;;;;;;;9.48;1.48;;;3.40;99.90;;;;;;5049876;28;20124;-83
2023/01/19 08:43:11;;;;;;;16.48;1.83;;;3.40;99.90;;;;;;5049574;28;20124;-83
2023/01/19 08:45:47;;;;;;;13.98;1.95;;;3.30;99.90;;;;;;5052186;28;20124;-83
2023/01/19 08:48:14;;;;;;;14.45;2.30;;;3.30;99.90;;;;;;5053086;28;20116;-83
2023/01/19 08:50:39;;;;;;;9.68;1.88;;;3.30;99.90;;;;;;5053360;28;20041;-83
2023/01/19 08:53:05;;;;;;;11.75;2.15;;;3.30;99.90;;;;;;5036444;28;20119;-83
2023/01/19 08:55:33;;;;;;;14.90;2.20;;;3.30;99.90;;;;;;5053129;28;20098;-83
2023/01/19 08:58:00;;;;;;;13.10;2.42;;;3.30;99.90;;;;;;5052823;28;20041;-83
2023/01/19 09:00:26;;;;;;;16.90;2.22;;;3.30;99.90;;;;;;5053039;28;20048;-83
2023/01/19 09:02:52;;;;;;;13.57;1.98;;;3.40;99.90;;;;;;5053278;28;20041;-83
2023/01/19 09:05:18;;;;;;;10.75;2.17;;;3.40;99.90;;;;;;5052947;28;20036;-83
2023/01/19 09:07:46;;;;;;;14.90;1.80;;;3.40;99.90;;;;;;5052809;28;20126;-83
2023/01/19 09:10:12;;;;;;;14.70;2.17;;;3.30;99.90;;;;;;5052900;28;20048;-84
2023/01/19 09:12:38;;;;;;;17.17;2.20;;;3.30;99.90;;;;;;5053038;28;20122;-83
2023/01/19 09:15:04;;;;;;;11.90;1.90;;;3.30;99.90;;;;;;5053001;28;20068;-84
2023/01/19 09:17:30;;;;;;;8.45;1.45;;;3.30;99.90;;;;;;5035863;28;20048;-83
2023/01/19 09:19:56;;;;;;;12.13;2.00;;;3.30;99.90;;;;;;5052822;28;20499;-83
2023/01/19 09:22:21;;;;;;;11.20;2.22;;;3.40;99.90;;;;;;5052951;28;20037;-83
2023/01/19 09:24:47;;;;;;;10.75;2.00;;;3.40;99.90;;;;;;5052589;28;20090;-84
2023/01/19 09:27:12;;;;;;;8.77;1.63;;;3.40;99.90;;;;;;5052951;28;20049;-83
2023/01/19 09:29:38;;;;;;;12.85;1.98;;;3.30;99.90;;;;;;5052642;28;20132;-84
2023/01/19 09:32:04;;;;;;;18.88;1.95;;;3.30;99.90;;;;;;5052803;28;20044;-84
2023/01/19 09:34:30;;;;;;;11.85;1.77;;;3.30;99.90;;;;;;5052531;28;20047;-84
2023/01/19 09:36:56;;;;;;;17.45;1.85;;;3.30;99.90;;;;;;5035701;28;20486;-83
2023/01/19 09:39:21;;;;;;;10.43;2.58;;;3.30;99.90;;;;;;5052102;28;20383;-83
2023/01/19 09:42:20;;;;;;;9.63;1.98;;;3.30;99.90;;;;;;5052556;28;20033;-83
2023/01/19 09:44:48;;;;;;;10.80;1.52;;;3.30;99.90;;;;;;5011933;28;20116;-83
2023/01/19 09:47:18;;;;;;;9.43;1.52;;;3.40;99.90;;;;;;5052135;28;20113;-83
2023/01/19 09:49:50;;;;;;;10.80;1.80;;;3.40;99.90;;;;;;5051997;28;20033;-84
2023/01/19 09:52:17;;;;;;;14.43;1.90;;;3.50;99.90;;;;;;5035470;28;20530;-83
2023/01/19 09:54:52;;;;;;;20.15;3.28;;;3.60;99.90;;;;;;5051865;28;20112;-83
2023/01/19 09:57:19;;;;;;;11.75;1.95;;;3.70;99.90;;;;;;5051677;28;20289;-83
2023/01/19 09:59:49;;;;;;;11.63;2.08;;;3.70;99.90;;;;;;5052158;28;20509;-83
2023/01/19 10:02:17;;;;;;;8.90;1.70;;;3.80;99.90;;;;;;5051963;28;20321;-84
2023/01/19 10:05:02;;;;;;;9.77;1.38;;;3.90;99.90;;;;;;5035314;28;20126;-84
2023/01/19 10:07:30;;;;;;;13.55;1.80;;;4.10;99.90;;;;;;5052055;28;20496;-83
2023/01/19 10:10:07;;;;;;;9.93;2.00;;;4.10;99.90;;;;;;5052211;28;20131;-84
2023/01/19 10:13:10;;;;;;;7.53;1.45;;;4.20;99.90;;;;;;5051864;28;20043;-83
2023/01/19 10:16:02;;;;;;;10.43;1.92;;;4.30;99.90;;;;;;5051762;28;20087;-83
2023/01/19 10:18:44;;;;;;;7.25;1.48;;;4.40;99.90;;;;;;5034726;28;20037;-83
2023/01/19 10:21:12;;;;;;;8.90;1.40;;;4.50;99.90;;;;;;5051693;28;20037;-83
2023/01/19 10:23:45;;;;;;;14.57;1.98;;;4.50;99.90;;;;;;5034835;28;20049;-84
2023/01/19 10:26:23;;;;;;;8.65;1.40;;;4.40;99.90;;;;;;5051656;28;20037;-84
2023/01/19 10:28:52;;;;;;;6.82;1.52;;;4.40;99.90;;;;;;5051145;28;20041;-83
2023/01/19 10:31:21;;;;;;;5.72;1.20;;;4.20;99.90;;;;;;5051400;28;20033;-83
2023/01/19 10:33:51;;;;;;;9.82;2.03;;;4.30;99.90;;;;;;5051497;28;20048;-84
2023/01/19 10:36:20;;;;;;;7.20;1.70;;;4.20;99.90;;;;;;5034888;28;20063;-83
2023/01/19 10:38:47;;;;;;;9.77;1.30;;;4.30;99.90;;;;;;5050972;28;20036;-84
2023/01/19 10:41:18;;;;;;;10.63;1.63;;;4.40;99.90;;;;;;5051220;28;20029;-83
2023/01/19 10:43:45;;;;;;;7.97;1.25;;;4.60;99.90;;;;;;5051231;28;20037;-83
2023/01/19 10:46:16;;;;;;;7.10;1.48;;;4.60;99.90;;;;;;5050775;28;20490;-83
2023/01/19 10:48:43;;;;;;;7.72;1.77;;;4.70;99.90;;;;;;5033885;28;20279;-84
2023/01/19 10:51:09;;;;;;;7.20;1.70;;;4.60;99.90;;;;;;5051454;28;20410;-84
2023/01/19 10:53:36;;;;;;;18.00;3.05;;;4.70;99.90;;;;;;5034383;28;20395;-84
2023/01/19 10:56:16;;;;;;;4.97;1.27;;;4.80;99.90;;;;;;5050921;28;20123;-84
2023/01/19 10:58:42;;;;;;;6.22;2.00;;;4.90;99.90;;;;;;5050767;28;20040;-84
2023/01/19 11:01:23;;;;;;;6.47;1.55;;;5.00;99.90;;;;;;5051259;28;20607;-83
2023/01/19 11:03:48;;;;;;;8.50;1.38;;;5.10;99.90;;;;;;5051097;28;20406;-84
2023/01/19 11:06:14;;;;;;;6.75;1.30;;;5.20;99.90;;;;;;5050559;28;20041;-84
2023/01/19 11:08:44;;;;;;;9.88;2.03;;;5.30;99.90;;;;;;5050071;28;20125;-84
2023/01/19 11:11:11;;;;;;;7.18;1.35;;;5.30;99.90;;;;;;5050835;28;20051;-83
2023/01/19 11:13:38;;;;;;;10.52;1.92;;;5.40;99.90;;;;;;5050712;28;20052;-84
2023/01/19 11:16:17;;;;;;;7.65;1.55;;;5.40;99.90;;;;;;5051267;28;20120;-83
2023/01/19 11:18:44;;;;;;;7.75;1.13;;;5.50;99.90;;;;;;5033827;28;20041;-83
2023/01/19 11:21:12;;;;;;;10.60;1.67;;;5.60;99.90;;;;;;5050752;28;20044;-84
2023/01/19 11:23:49;;;;;;;8.32;1.40;;;5.70;99.90;;;;;;5033791;28;20045;-83
2023/01/19 11:26:32;;;;;;;11.10;2.00;;;5.70;99.90;;;;;;5050576;28;20044;-84
2023/01/19 11:29:02;;;;;;;8.65;1.25;;;5.80;99.90;;;;;;5050566;28;20052;-83
2023/01/19 11:31:27;;;;;;;8.52;1.20;;;5.80;99.90;;;;;;5050674;28;20072;-84
2023/01/19 11:33:55;;;;;;;7.97;1.40;;;5.90;99.90;;;;;;5050469;28;20127;-84
2023/01/19 11:36:35;;;;;;;6.57;1.75;;;5.90;99.90;;;;;;5050370;28;20040;-83
2023/01/19 11:39:22;;;;;;;8.38;1.80;;;5.90;99.90;;;;;;5033389;28;20091;-84
2023/01/19 11:41:54;;;;;;;7.45;1.42;;;6.00;99.90;;;;;;5033675;28;20120;-84
2023/01/19 11:44:28;;;;;;;7.32;1.45;;;6.00;99.90;;;;;;5033552;28;20068;-84
2023/01/19 11:46:58;;;;;;;11.05;1.63;;;6.00;99.90;;;;;;5033491;28;20037;-83
2023/01/19 11:49:31;;;;;;;7.30;0.85;;;6.00;99.90;;;;;;5033385;28;20033;-83
2023/01/19 11:52:21;;;;;;;7.32;1.13;;;6.10;99.90;;;;;;5034268;28;20072;-83
2023/01/19 11:55:02;;;;;;;4.28;1.00;;;6.10;99.90;;;;;;5050322;28;20040;-83
2023/01/19 11:57:27;;;;;;;7.10;1.55;;;6.20;99.90;;;;;;5033261;28;20136;-83
2023/01/19 11:59:53;;;;;;;7.53;1.73;;;6.30;99.90;;;;;;5049930;28;20099;-83
2023/01/19 12:02:29;;;;;;;6.53;1.00;;;6.40;99.90;;;;;;5050084;28;20441;-83
2023/01/19 12:05:03;;;;;;;3.67;1.17;;;6.40;99.90;;;;;;5049844;28;20040;-84
2023/01/19 12:07:34;;;;;;;4.03;1.10;;;6.40;99.90;;;;;;5049796;28;20076;-83
2023/01/19 12:10:21;;;;;;;5.53;1.20;;;6.40;99.90;;;;;;5049981;28;20045;-83
2023/01/19 12:12:47;;;;;;;4.82;1.13;;;6.40;99.90;;;;;;5049615;28;20048;-83
2023/01/19 12:15:35;;;;;;;7.07;1.10;;;6.50;99.90;;;;;;5049744;28;20045;-83
2023/01/19 12:18:03;;;;;;;7.97;0.88;;;6.50;99.90;;;;;;5049609;28;20098;-83
2023/01/19 12:20:46;;;;;;;6.55;1.58;;;6.50;99.90;;;;;;5036672;28;20116;-84
2023/01/19 12:23:23;;;;;;;7.57;1.27;;;6.50;99.90;;;;;;5053873;28;20037;-82
2023/01/19 12:25:55;;;;;;;9.93;1.40;;;6.40;99.90;;;;;;5053893;28;20036;-83
2023/01/19 12:28:28;;;;;;;8.38;1.27;;;6.40;99.90;;;;;;5053684;28;20041;-83
2023/01/19 12:30:54;;;;;;;12.07;1.40;;;6.40;99.90;;;;;;5037159;28;20128;-83
2023/01/19 12:33:33;;;;;;;6.80;1.27;;;6.30;99.90;;;;;;5037236;28;20123;-82
2023/01/19 12:36:02;;;;;;;5.45;0.77;;;6.10;99.90;;;;;;5053590;28;20071;-82
2023/01/19 12:38:51;;;;;;;7.32;0.85;;;6.00;99.90;;;;;;5053187;28;20123;-82
2023/01/19 12:41:21;;;;;;;3.83;0.93;;;6.20;99.90;;;;;;5053557;28;20041;-83
2023/01/19 12:44:08;;;;;;;6.13;1.00;;;6.30;99.90;;;;;;5053496;28;20068;-83
2023/01/19 12:46:34;;;;;;;7.50;1.00;;;6.50;99.90;;;;;;5053668;28;20131;-84
2023/01/19 12:49:04;;;;;;;4.22;0.55;;;6.50;99.90;;;;;;5036571;28;20198;-82
2023/01/19 12:51:30;;;;;;;5.57;0.90;;;6.50;99.90;;;;;;5053584;28;20095;-83
2023/01/19 12:53:58;;;;;;;5.05;0.95;;;6.40;99.90;;;;;;5053692;28;20032;-83
2023/01/19 12:56:31;;;;;;;3.20;0.68;;;6.30;99.90;;;;;;5052455;28;20052;-83
2023/01/19 12:58:57;;;;;;;5.07;1.00;;;6.10;99.90;;;;;;5044601;28;20502;-81
2023/01/19 13:01:23;;;;;;;5.10;0.90;;;5.90;99.90;;;;;;5051079;28;20040;-81
2023/01/19 13:04:25;;;;;;;5.65;0.70;;;5.80;99.90;;;;;;5052685;28;20037;-80
2023/01/19 13:06:51;;;;;;;8.13;1.23;;;5.70;99.90;;;;;;5052951;28;20403;-81
2023/01/19 13:09:29;;;;;;;5.00;0.90;;;5.60;99.90;;;;;;5052552;28;20056;-82